createdAt,value
2019-05-06T00:00:25.189Z,3.53
2019-05-06T00:02:54.601Z,5.03
2019-05-06T00:05:25.450Z,4.73
2019-05-06T00:07:54.969Z,4.10
2019-05-06T00:10:25.614Z,3.57
2019-05-06T00:12:54.902Z,4.07
2019-05-06T00:15:23.801Z,4.00
2019-05-06T00:17:53.847Z,3.80
2019-05-06T00:20:24.414Z,4.00
2019-05-06T00:22:56.306Z,3.60
2019-05-06T00:25:41.482Z,3.50
2019-05-06T00:28:34.128Z,4.80
2019-05-06T00:31:12.873Z,4.27
2019-05-06T00:33:35.361Z,3.67
2019-05-06T00:36:04.808Z,3.97
2019-05-06T00:38:34.253Z,4.50
2019-05-06T00:41:06.061Z,4.00
2019-05-06T00:43:34.967Z,4.50
2019-05-06T00:46:04.643Z,4.10
2019-05-06T00:48:34.367Z,4.80
2019-05-06T00:51:04.578Z,4.37
2019-05-06T00:53:35.902Z,4.53
2019-05-06T00:56:04.839Z,5.30
2019-05-06T00:58:34.781Z,4.93
2019-05-06T01:01:04.657Z,4.47
2019-05-06T01:03:34.733Z,5.27
2019-05-06T01:06:04.012Z,4.93
2019-05-06T01:08:34.770Z,4.53
2019-05-06T01:11:04.119Z,4.93
2019-05-06T01:13:44.732Z,5.03
2019-05-06T01:16:15.746Z,5.67
2019-05-06T01:18:44.506Z,4.80
2019-05-06T01:21:14.498Z,4.10
2019-05-06T01:23:45.046Z,4.57
2019-05-06T01:26:15.233Z,4.87
2019-05-06T01:28:44.303Z,5.10
2019-05-06T01:31:14.090Z,5.00
2019-05-06T01:33:45.182Z,5.57
2019-05-06T01:36:14.190Z,4.70
2019-05-06T01:39:11.063Z,4.87
2019-05-06T01:41:45.706Z,4.93
2019-05-06T01:44:14.405Z,5.13
2019-05-06T01:46:44.739Z,5.53
2019-05-06T01:49:13.838Z,5.47
2019-05-06T01:51:43.813Z,5.57
2019-05-06T01:54:14.127Z,5.40
2019-05-06T01:56:44.488Z,5.77
2019-05-06T01:59:14.198Z,4.47
2019-05-06T02:01:54.809Z,5.03
2019-05-06T02:04:13.936Z,5.80
2019-05-06T02:06:43.743Z,5.70
2019-05-06T02:09:16.675Z,6.30
2019-05-06T02:11:48.108Z,5.83
2019-05-06T02:14:16.972Z,4.87
2019-05-06T02:16:45.850Z,5.90
2019-05-06T02:19:14.889Z,5.47
2019-05-06T02:22:01.550Z,5.40
2019-05-06T02:25:01.470Z,4.97
2019-05-06T02:27:30.868Z,5.80
2019-05-06T02:30:17.051Z,6.00
2019-05-06T02:33:01.093Z,5.67
2019-05-06T02:36:07.390Z,6.00
2019-05-06T02:38:46.681Z,5.57
2019-05-06T02:41:07.130Z,5.97
2019-05-06T02:43:36.149Z,5.67
2019-05-06T02:46:04.949Z,5.90
2019-05-06T02:48:48.452Z,7.07
2019-05-06T02:51:19.128Z,5.07
2019-05-06T02:53:47.777Z,6.77
2019-05-06T02:56:16.416Z,5.53
2019-05-06T02:58:45.477Z,5.83
2019-05-06T03:01:14.441Z,5.20
2019-05-06T03:03:43.779Z,6.27
2019-05-06T03:06:13.393Z,5.57
2019-05-06T03:08:43.676Z,6.43
2019-05-06T03:11:13.763Z,6.17
2019-05-06T03:13:43.974Z,6.40
2019-05-06T03:16:14.120Z,6.47
2019-05-06T03:18:43.747Z,6.07
2019-05-06T03:21:33.716Z,6.50
2019-05-06T03:24:23.462Z,6.40
2019-05-06T03:26:53.444Z,6.27
2019-05-06T03:29:25.352Z,6.67
2019-05-06T03:31:56.285Z,7.13
2019-05-06T03:34:49.506Z,6.40
2019-05-06T03:36:56.478Z,6.13
2019-05-06T03:39:25.552Z,5.77
2019-05-06T03:41:54.145Z,6.07
2019-05-06T03:44:23.887Z,6.43
2019-05-06T03:47:13.888Z,5.70
2019-05-06T03:49:49.687Z,5.60
2019-05-06T03:52:16.302Z,6.47
2019-05-06T03:54:47.062Z,5.67
2019-05-06T03:57:16.052Z,5.83
2019-05-06T03:59:45.576Z,6.80
2019-05-06T04:02:14.551Z,6.63
2019-05-06T04:04:44.092Z,6.43
2019-05-06T04:07:14.038Z,6.83
2019-05-06T04:09:44.188Z,6.67
2019-05-06T04:12:14.408Z,7.27
2019-05-06T04:14:43.505Z,5.07
2019-05-06T04:17:17.208Z,5.27
2019-05-06T04:19:53.218Z,4.80
2019-05-06T04:22:43.981Z,5.90
2019-05-06T04:25:33.884Z,6.30
2019-05-06T04:28:26.655Z,5.60
2019-05-06T04:30:55.711Z,5.77
2019-05-06T04:33:24.776Z,6.37
2019-05-06T04:35:54.213Z,6.40
2019-05-06T04:38:23.705Z,5.83
2019-05-06T04:40:53.901Z,5.83
2019-05-06T04:43:26.962Z,5.13
2019-05-06T04:45:54.404Z,6.73
2019-05-06T04:48:23.983Z,6.47
2019-05-06T04:50:53.730Z,6.03
2019-05-06T04:53:26.719Z,5.77
2019-05-06T04:55:54.009Z,6.00
2019-05-06T04:58:23.630Z,5.87
2019-05-06T05:00:54.008Z,6.83
2019-05-06T05:03:23.085Z,5.63
2019-05-06T05:05:53.028Z,3.87
2019-05-06T05:08:25.500Z,5.27
2019-05-06T05:11:00.394Z,6.03
2019-05-06T05:14:02.806Z,6.10
2019-05-06T05:16:38.693Z,5.17
2019-05-06T05:19:09.730Z,5.70
2019-05-06T05:21:39.066Z,5.73
2019-05-06T05:24:08.264Z,5.83
2019-05-06T05:26:38.198Z,5.80
2019-05-06T05:29:07.577Z,5.47
2019-05-06T05:31:36.284Z,6.07
2019-05-06T05:34:05.115Z,6.33
2019-05-06T05:36:34.359Z,6.30
2019-05-06T05:39:03.524Z,4.77
2019-05-06T05:41:33.385Z,4.80
2019-05-06T05:44:14.358Z,6.13
2019-05-06T05:46:43.856Z,5.30
2019-05-06T05:49:24.417Z,6.00
2019-05-06T05:51:52.408Z,5.47
2019-05-06T05:54:23.184Z,4.67
2019-05-06T05:56:53.022Z,6.50
2019-05-06T05:59:23.123Z,5.87
2019-05-06T06:01:53.079Z,5.60
2019-05-06T06:04:22.780Z,6.03
2019-05-06T06:06:52.094Z,6.83
2019-05-06T06:09:22.624Z,5.47
2019-05-06T06:11:57.956Z,4.67
2019-05-06T06:14:56.218Z,5.33
2019-05-06T06:17:49.002Z,5.97
2019-05-06T06:20:35.999Z,6.10
2019-05-06T06:23:10.676Z,5.40
2019-05-06T06:25:42.249Z,5.23
2019-05-06T06:28:11.970Z,5.97
2019-05-06T06:30:52.054Z,7.13
2019-05-06T06:33:22.359Z,4.80
2019-05-06T06:35:58.098Z,5.37
2019-05-06T06:38:48.300Z,5.77
2019-05-06T06:41:17.317Z,5.40
2019-05-06T06:43:48.812Z,6.53
2019-05-06T06:46:18.161Z,6.43
2019-05-06T06:48:47.259Z,6.43
2019-05-06T06:51:16.148Z,5.83
2019-05-06T06:53:44.869Z,5.97
2019-05-06T06:56:35.229Z,6.10
2019-05-06T06:59:09.295Z,5.43
2019-05-06T07:01:48.067Z,5.37
2019-05-06T07:04:26.991Z,6.53
2019-05-06T07:06:56.492Z,5.53
2019-05-06T07:09:25.567Z,4.60
2019-05-06T07:11:54.485Z,6.37
2019-05-06T07:14:23.478Z,5.57
2019-05-06T07:16:53.368Z,4.83
2019-05-06T07:19:47.165Z,4.53
2019-05-06T07:22:15.801Z,3.40
2019-05-06T07:24:44.401Z,3.37
2019-05-06T07:27:17.835Z,3.67
2019-05-06T07:29:48.104Z,4.27
2019-05-06T07:32:17.572Z,3.93
2019-05-06T07:34:46.458Z,3.37
2019-05-06T07:37:15.448Z,3.30
2019-05-06T07:39:44.338Z,3.70
2019-05-06T07:42:19.050Z,3.60
2019-05-06T07:45:07.109Z,3.47
2019-05-06T07:47:42.639Z,3.67
2019-05-06T07:50:13.114Z,3.37
2019-05-06T07:52:44.642Z,3.80
2019-05-06T07:55:13.674Z,3.60
2019-05-06T07:57:42.636Z,4.13
2019-05-06T08:00:12.591Z,3.87
2019-05-06T08:02:42.586Z,3.93
2019-05-06T08:05:12.730Z,3.63
2019-05-06T08:07:42.360Z,3.60
2019-05-06T08:10:13.540Z,3.40
2019-05-06T08:12:42.871Z,3.80
2019-05-06T08:15:12.658Z,2.47
2019-05-06T08:17:42.587Z,2.63
2019-05-06T08:20:12.932Z,3.03
2019-05-06T08:22:56.575Z,3.13
2019-05-06T08:25:26.036Z,3.67
2019-05-06T08:27:55.024Z,3.93
2019-05-06T08:30:24.031Z,2.40
2019-05-06T08:32:52.996Z,3.77
2019-05-06T08:35:22.725Z,3.10
2019-05-06T08:37:53.107Z,2.70
2019-05-06T08:40:23.680Z,3.47
2019-05-06T08:42:53.280Z,3.17
2019-05-06T08:45:22.176Z,2.93
2019-05-06T08:47:52.347Z,2.97
2019-05-06T08:50:32.767Z,2.70
2019-05-06T08:53:13.624Z,3.00
2019-05-06T08:55:42.113Z,3.57
2019-05-06T08:58:11.206Z,2.43
2019-05-06T09:00:47.162Z,2.60
2019-05-06T09:03:15.754Z,2.70
2019-05-06T09:05:53.289Z,2.27
2019-05-06T09:08:23.845Z,2.20
2019-05-06T09:10:52.870Z,2.13
2019-05-06T09:13:23.176Z,2.40
2019-05-06T09:15:52.773Z,2.50
2019-05-06T09:18:23.868Z,2.30
2019-05-06T09:20:53.659Z,2.00
2019-05-06T09:23:22.855Z,2.40
2019-05-06T09:25:53.147Z,2.40
2019-05-06T09:28:29.346Z,2.80
2019-05-06T09:31:12.508Z,2.30
2019-05-06T09:33:47.156Z,2.00
2019-05-06T09:36:15.898Z,2.40
2019-05-06T09:38:44.572Z,2.33
2019-05-06T09:41:13.666Z,2.10
2019-05-06T09:43:43.378Z,1.93
2019-05-06T09:46:13.011Z,2.03
2019-05-06T09:49:19.664Z,2.03
2019-05-06T09:51:48.550Z,2.00
2019-05-06T09:54:33.626Z,1.87
2019-05-06T09:57:06.303Z,2.30
2019-05-06T09:59:42.044Z,2.03
2019-05-06T10:02:12.350Z,2.20
2019-05-06T10:04:42.844Z,1.50
2019-05-06T10:07:12.513Z,1.97
2019-05-06T10:09:43.431Z,2.00
2019-05-06T10:12:12.881Z,1.77
2019-05-06T10:14:43.278Z,2.20
2019-05-06T10:17:13.148Z,2.13
2019-05-06T10:19:43.036Z,2.07
2019-05-06T10:22:12.669Z,2.20
2019-05-06T10:24:43.117Z,2.10
2019-05-06T10:27:12.438Z,2.60
2019-05-06T10:29:59.370Z,2.43
2019-05-06T10:32:39.504Z,2.40
2019-05-06T10:35:08.935Z,2.40
2019-05-06T10:37:56.062Z,2.70
2019-05-06T10:40:28.910Z,2.30
2019-05-06T10:43:07.766Z,2.37
2019-05-06T10:45:36.641Z,3.03
2019-05-06T10:48:06.047Z,2.43
2019-05-06T10:50:39.513Z,2.80
2019-05-06T10:53:25.245Z,2.57
2019-05-06T10:55:55.221Z,2.37
2019-05-06T10:58:24.513Z,2.90
2019-05-06T11:01:12.655Z,2.20
2019-05-06T11:03:42.119Z,3.07
2019-05-06T11:06:13.164Z,3.00
2019-05-06T11:08:42.176Z,3.00
2019-05-06T11:11:15.276Z,2.70
2019-05-06T11:13:41.375Z,2.07
2019-05-06T11:16:10.344Z,2.30
2019-05-06T11:18:39.638Z,2.80
2019-05-06T11:21:08.273Z,2.73
2019-05-06T11:23:37.219Z,1.97
2019-05-06T11:26:05.838Z,2.00
2019-05-06T11:28:47.706Z,2.33
2019-05-06T11:31:34.538Z,2.20
2019-05-06T11:34:25.384Z,1.77
2019-05-06T11:37:15.055Z,1.80
2019-05-06T11:39:43.987Z,1.80
2019-05-06T11:42:27.563Z,1.93
2019-05-06T11:44:44.044Z,1.63
2019-05-06T11:47:13.086Z,1.70
2019-05-06T11:49:44.114Z,1.57
2019-05-06T11:52:13.146Z,1.40
2019-05-06T11:54:42.280Z,1.90
2019-05-06T11:57:12.562Z,1.73
2019-05-06T11:59:43.256Z,1.40
2019-05-06T12:02:15.071Z,1.90
2019-05-06T12:04:43.716Z,1.40
2019-05-06T12:07:15.793Z,1.63
2019-05-06T12:09:43.387Z,1.23
2019-05-06T12:12:12.751Z,2.10
2019-05-06T12:14:42.923Z,1.90
2019-05-06T12:17:12.764Z,1.90
2019-05-06T12:19:43.177Z,1.50
2019-05-06T12:22:12.609Z,1.60
2019-05-06T12:24:43.093Z,1.80
2019-05-06T12:27:14.843Z,1.80
2019-05-06T12:29:43.571Z,2.10
2019-05-06T12:32:34.741Z,2.00
2019-05-06T12:35:03.641Z,1.73
2019-05-06T12:37:32.827Z,1.50
2019-05-06T12:40:03.407Z,1.57
2019-05-06T12:42:35.528Z,1.80
2019-05-06T12:45:27.518Z,1.40
2019-05-06T12:47:58.912Z,1.50
2019-05-06T12:50:27.925Z,1.80
2019-05-06T12:52:57.829Z,1.60
2019-05-06T12:55:26.974Z,1.80
2019-05-06T12:57:55.990Z,1.80
2019-05-06T13:00:26.433Z,1.80
2019-05-06T13:02:55.657Z,1.43
2019-05-06T13:05:24.730Z,1.10
2019-05-06T13:07:53.622Z,1.10
2019-05-06T13:10:23.390Z,1.60
2019-05-06T13:13:12.737Z,1.33
2019-05-06T13:15:43.510Z,1.33
2019-05-06T13:18:12.124Z,1.53
2019-05-06T13:20:48.121Z,1.77
2019-05-06T13:23:30.074Z,1.80
2019-05-06T13:25:59.106Z,2.00
2019-05-06T13:28:31.269Z,1.90
2019-05-06T13:31:16.140Z,1.90
2019-05-06T13:33:37.560Z,1.90
2019-05-06T13:36:06.331Z,2.80
2019-05-06T13:38:35.205Z,1.70
2019-05-06T13:41:04.200Z,2.40
2019-05-06T13:43:43.372Z,2.00
2019-05-06T13:46:17.680Z,2.37
2019-05-06T13:48:57.316Z,2.27
2019-05-06T13:51:27.511Z,2.27
2019-05-06T13:53:56.413Z,1.97
2019-05-06T13:56:25.410Z,2.80
2019-05-06T13:58:54.390Z,2.20
2019-05-06T14:01:24.731Z,2.03
2019-05-06T14:03:53.344Z,2.23
2019-05-06T14:06:21.987Z,2.00
2019-05-06T14:08:52.927Z,2.10
2019-05-06T14:11:23.044Z,2.23
2019-05-06T14:13:53.004Z,1.83
2019-05-06T14:16:24.543Z,2.00
2019-05-06T14:18:53.431Z,2.33
2019-05-06T14:21:23.024Z,1.60
2019-05-06T14:23:51.881Z,1.97
2019-05-06T14:26:26.954Z,1.70
2019-05-06T14:29:02.436Z,1.80
2019-05-06T14:31:34.252Z,2.30
2019-05-06T14:34:03.657Z,1.50
2019-05-06T14:36:32.880Z,1.80
2019-05-06T14:39:04.717Z,1.50
2019-05-06T14:41:32.825Z,1.50
2019-05-06T14:44:02.710Z,1.70
2019-05-06T14:46:50.757Z,1.70
2019-05-06T14:49:22.391Z,1.80
2019-05-06T14:51:50.774Z,1.40
2019-05-06T14:54:21.732Z,1.73
2019-05-06T14:56:54.412Z,2.10
2019-05-06T14:59:23.611Z,1.90
2019-05-06T15:01:53.646Z,1.80
2019-05-06T15:04:23.131Z,1.43
2019-05-06T15:06:52.950Z,1.60
2019-05-06T15:09:22.641Z,1.67
2019-05-06T15:11:52.314Z,1.70
2019-05-06T15:14:22.690Z,1.80
2019-05-06T15:16:52.832Z,1.73
2019-05-06T15:19:22.724Z,2.27
2019-05-06T15:21:53.094Z,1.97
2019-05-06T15:24:24.433Z,1.97
2019-05-06T15:26:52.658Z,2.03
2019-05-06T15:29:23.664Z,1.67
2019-05-06T15:32:15.020Z,2.00
2019-05-06T15:34:58.823Z,1.90
2019-05-06T15:37:33.997Z,1.90
2019-05-06T15:40:03.220Z,1.63
2019-05-06T15:42:34.260Z,1.70
2019-05-06T15:45:04.150Z,1.50
2019-05-06T15:47:33.245Z,1.80
2019-05-06T15:50:02.213Z,1.43
2019-05-06T15:52:32.475Z,1.43
2019-05-06T15:55:03.242Z,1.60
2019-05-06T15:57:32.798Z,1.60
2019-05-06T16:00:02.767Z,1.57
2019-05-06T16:02:33.491Z,2.23
2019-05-06T16:05:11.329Z,1.60
2019-05-06T16:07:37.118Z,1.83
2019-05-06T16:10:03.723Z,2.03
2019-05-06T16:12:32.328Z,2.17
2019-05-06T16:15:02.608Z,1.90
2019-05-06T16:17:32.802Z,1.70
2019-05-06T16:20:02.729Z,1.97
2019-05-06T16:22:33.626Z,1.70
2019-05-06T16:25:10.569Z,1.80
2019-05-06T16:27:39.483Z,2.23
2019-05-06T16:30:09.218Z,1.83
2019-05-06T16:32:38.183Z,1.47
2019-05-06T16:35:07.377Z,1.70
2019-05-06T16:37:36.367Z,1.40
2019-05-06T16:40:06.058Z,1.57
2019-05-06T16:42:35.069Z,1.70
2019-05-06T16:45:06.815Z,1.17
2019-05-06T16:47:38.251Z,1.40
2019-05-06T16:50:09.713Z,1.57
2019-05-06T16:52:39.081Z,1.60
2019-05-06T16:55:11.370Z,1.50
2019-05-06T16:57:42.880Z,1.27
2019-05-06T17:00:14.002Z,1.00
2019-05-06T17:02:57.870Z,1.00
2019-05-06T17:05:57.656Z,1.37
2019-05-06T17:08:26.327Z,1.60
2019-05-06T17:10:55.756Z,1.33
2019-05-06T17:13:24.637Z,1.33
2019-05-06T17:15:53.479Z,1.60
2019-05-06T17:18:22.774Z,2.23
2019-05-06T17:20:51.832Z,1.60
2019-05-06T17:23:22.412Z,1.60
2019-05-06T17:25:52.083Z,1.53
2019-05-06T17:28:28.101Z,1.50
2019-05-06T17:31:07.260Z,1.77
2019-05-06T17:33:38.479Z,1.70
2019-05-06T17:36:08.400Z,1.70
2019-05-06T17:38:48.675Z,1.37
2019-05-06T17:41:17.670Z,1.57
2019-05-06T17:43:46.592Z,1.37
2019-05-06T17:46:17.501Z,1.57
2019-05-06T17:49:02.371Z,1.53
2019-05-06T17:51:37.536Z,1.50
2019-05-06T17:54:06.836Z,1.60
2019-05-06T17:56:35.657Z,1.80
2019-05-06T17:59:05.122Z,1.47
2019-05-06T18:01:37.850Z,1.50
2019-05-06T18:04:06.873Z,1.50
2019-05-06T18:06:35.712Z,1.83
2019-05-06T18:09:07.272Z,1.87
2019-05-06T18:11:35.949Z,1.63
2019-05-06T18:14:04.903Z,1.70
2019-05-06T18:16:34.038Z,2.23
2019-05-06T18:19:03.253Z,1.80
2019-05-06T18:21:32.302Z,1.53
2019-05-06T18:24:03.107Z,1.50
2019-05-06T18:26:32.772Z,1.60
2019-05-06T18:29:02.663Z,1.87
2019-05-06T18:31:33.799Z,2.00
2019-05-06T18:34:03.879Z,1.80
2019-05-06T18:36:33.358Z,2.20
2019-05-06T18:39:03.503Z,2.00
2019-05-06T18:41:33.008Z,1.53
2019-05-06T18:44:01.752Z,1.80
2019-05-06T18:46:32.193Z,1.70
2019-05-06T18:49:02.509Z,1.40
2019-05-06T18:51:32.010Z,2.07
2019-05-06T18:54:02.999Z,1.53
2019-05-06T18:56:32.430Z,1.63
2019-05-06T18:59:02.858Z,1.67
2019-05-06T19:01:33.161Z,1.87
2019-05-06T19:04:09.149Z,2.00
2019-05-06T19:06:38.024Z,1.30
2019-05-06T19:09:42.442Z,1.60
2019-05-06T19:12:12.817Z,1.60
2019-05-06T19:14:43.278Z,1.53
2019-05-06T19:17:13.159Z,1.20
2019-05-06T19:19:42.821Z,1.50
2019-05-06T19:22:14.052Z,1.60
2019-05-06T19:24:44.674Z,1.30
2019-05-06T19:27:13.814Z,1.57
2019-05-06T19:29:45.982Z,1.63
2019-05-06T19:32:14.703Z,1.30
2019-05-06T19:34:43.567Z,1.27
2019-05-06T19:37:12.274Z,1.90
2019-05-06T19:39:43.082Z,2.10
2019-05-06T19:42:12.960Z,2.07
2019-05-06T19:44:43.167Z,2.00
2019-05-06T19:47:13.555Z,1.90
2019-05-06T19:49:42.473Z,1.40
2019-05-06T19:52:11.637Z,1.90
2019-05-06T19:54:42.490Z,1.90
2019-05-06T19:57:12.473Z,1.50
2019-05-06T19:59:42.498Z,1.60
2019-05-06T20:02:12.863Z,1.50
2019-05-06T20:04:44.424Z,1.67
2019-05-06T20:07:27.871Z,1.43
2019-05-06T20:10:18.383Z,1.30
2019-05-06T20:13:01.205Z,2.30
2019-05-06T20:15:38.735Z,2.10
2019-05-06T20:18:08.865Z,1.63
2019-05-06T20:20:38.467Z,1.80
2019-05-06T20:23:07.759Z,1.40
2019-05-06T20:25:37.196Z,1.97
2019-05-06T20:28:06.338Z,1.43
2019-05-06T20:30:35.451Z,1.70
2019-05-06T20:33:04.600Z,1.70
2019-05-06T20:35:33.780Z,1.50
2019-05-06T20:38:03.373Z,1.90
2019-05-06T20:40:32.940Z,1.67
2019-05-06T20:43:14.224Z,1.87
2019-05-06T20:45:35.209Z,1.80
2019-05-06T20:48:03.338Z,2.10
2019-05-06T20:50:32.398Z,1.80
2019-05-06T20:53:01.219Z,1.70
2019-05-06T20:55:34.732Z,2.37
2019-05-06T20:58:02.623Z,1.53
2019-05-06T21:00:33.435Z,1.60
2019-05-06T21:03:02.224Z,1.77
2019-05-06T21:05:32.312Z,1.50
2019-05-06T21:08:02.175Z,1.70
2019-05-06T21:10:32.891Z,2.13
2019-05-06T21:13:02.463Z,1.53
2019-05-06T21:15:32.330Z,1.43
2019-05-06T21:18:04.334Z,1.83
2019-05-06T21:20:33.004Z,2.13
2019-05-06T21:23:02.387Z,1.67
2019-05-06T21:25:32.241Z,1.73
2019-05-06T21:28:02.839Z,2.10
2019-05-06T21:30:32.296Z,1.70
2019-05-06T21:33:01.502Z,1.60
2019-05-06T21:35:30.156Z,1.50
2019-05-06T21:37:59.075Z,1.80
2019-05-06T21:40:28.079Z,1.63
2019-05-06T21:42:57.378Z,1.57
2019-05-06T21:45:25.985Z,1.80
2019-05-06T21:47:54.981Z,1.83
2019-05-06T21:50:23.941Z,2.20
2019-05-06T21:52:52.586Z,2.07
2019-05-06T21:55:22.724Z,2.90
2019-05-06T21:57:52.964Z,1.80
2019-05-06T22:00:25.959Z,1.70
2019-05-06T22:02:55.260Z,1.70
2019-05-06T22:05:23.913Z,1.67
2019-05-06T22:07:52.874Z,2.33
2019-05-06T22:10:22.705Z,1.63
2019-05-06T22:12:52.748Z,2.00
2019-05-06T22:15:22.750Z,1.80
2019-05-06T22:17:54.355Z,1.80
2019-05-06T22:20:23.780Z,1.70
2019-05-06T22:22:52.570Z,2.00
2019-05-06T22:25:22.099Z,3.10
2019-05-06T22:27:51.950Z,2.03
2019-05-06T22:30:23.645Z,1.90
2019-05-06T22:32:52.674Z,2.10
2019-05-06T22:35:23.091Z,2.10
2019-05-06T22:37:52.953Z,1.83
2019-05-06T22:40:23.808Z,2.10
2019-05-06T22:42:52.987Z,1.80
2019-05-06T22:45:22.312Z,1.67
2019-05-06T22:47:51.273Z,1.90
2019-05-06T22:50:22.454Z,2.50
2019-05-06T22:52:52.854Z,2.43
2019-05-06T22:55:22.202Z,1.97
2019-05-06T22:57:52.825Z,2.63
2019-05-06T23:00:23.600Z,2.00
2019-05-06T23:02:57.414Z,2.37
2019-05-06T23:05:26.332Z,1.70
2019-05-06T23:07:55.311Z,2.10
2019-05-06T23:10:24.914Z,2.10
2019-05-06T23:12:53.919Z,2.03
2019-05-06T23:15:22.930Z,2.63
2019-05-06T23:17:52.678Z,2.40
2019-05-06T23:20:24.194Z,2.00
2019-05-06T23:22:52.281Z,1.90
2019-05-06T23:25:22.048Z,2.10
2019-05-06T23:27:52.986Z,2.30
2019-05-06T23:30:24.546Z,2.43
2019-05-06T23:32:53.441Z,2.10
2019-05-06T23:35:22.416Z,2.43
2019-05-06T23:38:27.370Z,2.67
2019-05-06T23:41:32.805Z,2.57
2019-05-06T23:44:45.544Z,2.40
2019-05-06T23:47:45.046Z,2.03
2019-05-06T23:50:50.088Z,2.43
2019-05-06T23:53:54.916Z,1.90
2019-05-06T23:56:44.263Z,1.87
2019-05-06T23:59:15.258Z,2.20
